1899 NOT_NAMED (1899060S15063)


IBTrACS version v04r00. Visit IBTrACS website for data access.
Please direct all questions to the IBTrACS Q and A forum

Storm track - Intensity - Wind Radii - Intensity Data - Source Data - All data

Summary Information

Storm ID 1899060S15063
Start Mar 1 06Z
Landfall Mar 6 03Z
End Mar 9 06Z
ATCF IDs
Track status Best track data.

Storm track plot

Map of storm track

Intensity plots

No Intensity information for this storm


Radial wind information

No radial wind information for this storm


Position and Intensity Table

BASIN ISO_TIME_________ NATURE LAT LON
degrees north degrees east
SI 1899-03-01 06:00:00 NR -14.65 62.50
SI 09:00:00 NR -14.72 62.35
SI 12:00:00 NR -14.79 62.20
SI 15:00:00 NR -14.86 62.04
SI 18:00:00 NR -14.93 61.88
SI 21:00:00 NR -15.00 61.70
SI 1899-03-02 00:00:00 NR -15.08 61.52
SI 03:00:00 NR -15.16 61.34
SI 06:00:00 NR -15.25 61.15
SI 09:00:00 NR -15.34 60.96
SI 12:00:00 NR -15.44 60.78
SI 15:00:00 NR -15.54 60.59
SI 18:00:00 NR -15.64 60.41
SI 21:00:00 NR -15.73 60.23
SI 1899-03-03 00:00:00 NR -15.81 60.06
SI 03:00:00 NR -15.90 59.88
SI 06:00:00 NR -16.00 59.70
SI 09:00:00 NR -16.10 59.52
SI 12:00:00 NR -16.21 59.32
SI 15:00:00 NR -16.33 59.13
SI 18:00:00 NR -16.46 58.93
SI 21:00:00 NR -16.59 58.74
SI 1899-03-04 00:00:00 NR -16.73 58.55
SI 03:00:00 NR -16.89 58.35
SI 06:00:00 NR -17.05 58.15
SI 09:00:00 NR -17.21 57.92
SI 12:00:00 NR -17.38 57.69
SI 15:00:00 NR -17.57 57.45
SI 18:00:00 NR -17.77 57.22
SI 21:00:00 NR -17.98 56.99
SI 1899-03-05 00:00:00 NR -18.22 56.77
SI 03:00:00 NR -18.47 56.56
SI 06:00:00 NR -18.75 56.35
SI 09:00:00 NR -19.04 56.14
SI 12:00:00 NR -19.36 55.94
SI 15:00:00 NR -19.69 55.75
SI 18:00:00 NR -20.03 55.58
SI 21:00:00 NR -20.37 55.43
SI 1899-03-06 00:00:00 NR -20.71 55.29
SI 03:00:00 NR -21.07 55.16
SI 06:00:00 NR -21.45 55.05
SI 09:00:00 NR -21.86 54.93
SI 12:00:00 NR -22.29 54.82
SI 15:00:00 NR -22.73 54.73
SI 18:00:00 NR -23.17 54.65
SI 21:00:00 NR -23.60 54.58
SI 1899-03-07 00:00:00 NR -23.75 54.56
SI 03:00:00 NR -23.81 54.54
SI 06:00:00 NR -23.74 54.54
SI 09:00:00 NR -23.48 54.53
SI 12:00:00 NR -23.97 54.48
SI 15:00:00 NR -24.48 54.43
SI 18:00:00 NR -24.98 54.39
SI 21:00:00 NR -25.46 54.36
SI 1899-03-08 00:00:00 NR -25.92 54.33
SI 03:00:00 NR -26.33 54.31
SI 06:00:00 NR -26.70 54.30
SI 09:00:00 NR -27.01 54.29
SI 12:00:00 NR -27.26 54.28
SI 15:00:00 NR -27.47 54.28
SI 18:00:00 NR -27.64 54.28
SI 21:00:00 NR -27.79 54.28
SI 1899-03-09 00:00:00 NR -27.90 54.29
SI 03:00:00 NR -28.01 54.29
SI 06:00:00 NR -28.10 54.30

Source Information

Agency Information
USA
TOKYO
CMA
HKO
NEWDELHI
REUNION WMO-Best-Tracks.txt:Line=1868:xxxx899271
BOM
NADI
WELLINGTON
DS824
TD9636 cons_worldwide_trop_cyclone_18710101-19891231-005:Line=2509
TD9635
NEUMANN
MLC

All available IBTrACS Data

SEASON BASIN SUBBASIN ISO_TIME_________ NATURE LAT LON WMO AGENCY DIST2LAND LANDFALL IFLAG USA SSHS REUNION LAT REUNION LON REUNION TYPE REUNION TNUM TD9636 LAT TD9636 LON TD9636 STAGE STORM SPEED STORM DIR
Year degrees north degrees east km km 1 degrees north degrees east 1 degrees north degrees east kts degrees
1899 SI MM 1899-03-01 06:00:00 NR -14.65 62.50 reunion 798 783 _____O____O___ -1 -14.50 62.90 99 9.90 -14.80 62.10 7 3 245
1899 SI MM 09:00:00 NR -14.72 62.35 783 761 _____P____P___ -1 -14.54 62.82 99 -14.90 61.88 7 3 245
1899 SI MM 12:00:00 NR -14.79 62.20 761 745 _____P____P___ -1 -14.57 62.74 99 -15.00 61.66 7 3 245
1899 SI MM 15:00:00 NR -14.86 62.04 739 732 _____P____P___ -1 -14.61 62.65 99 -15.10 61.43 7 3 246
1899 SI MM 18:00:00 NR -14.93 61.88 732 710 _____P____O___ -1 -14.66 62.56 99 -15.20 61.20 7 4 246
1899 SI MM 21:00:00 NR -15.00 61.70 710 689 _____P____P___ -1 -14.71 62.45 99 -15.30 60.96 7 4 246
1899 SI MM 1899-03-02 00:00:00 NR -15.08 61.52 689 667 _____P____P___ -1 -14.76 62.32 99 -15.40 60.73 7 4 246
1899 SI MM 03:00:00 NR -15.16 61.34 667 661 _____P____P___ -1 -14.83 62.17 99 -15.50 60.50 7 4 245
1899 SI MM 06:00:00 NR -15.25 61.15 reunion 661 640 _____O____O___ -1 -14.90 62.00 99 9.90 -15.60 60.30 7 4 243
1899 SI MM 09:00:00 NR -15.34 60.96 640 619 _____P____P___ -1 -14.98 61.80 99 -15.70 60.12 7 4 242
1899 SI MM 12:00:00 NR -15.44 60.78 619 599 _____P____P___ -1 -15.08 61.59 99 -15.81 59.97 7 4 241
1899 SI MM 15:00:00 NR -15.54 60.59 599 578 _____P____P___ -1 -15.17 61.36 99 -15.91 59.83 7 4 241
1899 SI MM 18:00:00 NR -15.64 60.41 578 558 _____P____O___ -1 -15.28 61.12 99 -16.00 59.70 7 4 242
1899 SI MM 21:00:00 NR -15.73 60.23 558 543 _____P____P___ -1 -15.38 60.87 99 -16.07 59.59 7 4 243
1899 SI MM 1899-03-03 00:00:00 NR -15.81 60.06 543 524 _____P____P___ -1 -15.49 60.64 99 -16.13 59.48 7 4 243
1899 SI MM 03:00:00 NR -15.90 59.88 524 505 _____P____P___ -1 -15.60 60.41 99 -16.21 59.36 7 4 242
1899 SI MM 06:00:00 NR -16.00 59.70 reunion 505 486 _____O____O___ -1 -15.70 60.20 99 9.90 -16.30 59.20 7 4 241
1899 SI MM 09:00:00 NR -16.10 59.52 486 467 _____P____P___ -1 -15.78 60.05 99 -16.42 58.99 7 4 240
1899 SI MM 12:00:00 NR -16.21 59.32 467 450 _____P____P___ -1 -15.86 59.91 99 -16.56 58.74 7 4 239
1899 SI MM 15:00:00 NR -16.33 59.13 450 432 _____P____P___ -1 -15.93 59.78 99 -16.72 58.47 7 5 237
1899 SI MM 18:00:00 NR -16.46 58.93 422 408 _____P____O___ -1 -16.01 59.66 99 -16.90 58.20 7 5 235
1899 SI MM 21:00:00 NR -16.59 58.74 405 392 _____P____P___ -1 -16.09 59.54 99 -17.08 57.95 7 5 233
1899 SI MM 1899-03-04 00:00:00 NR -16.73 58.55 392 365 _____P____P___ -1 -16.18 59.41 99 -17.28 57.69 7 5 232
1899 SI MM 03:00:00 NR -16.89 58.35 365 350 _____P____P___ -1 -16.29 59.27 99 -17.48 57.44 7 5 230
1899 SI MM 06:00:00 NR -17.05 58.15 reunion 350 325 _____O____O___ -1 -16.40 59.10 99 9.90 -17.70 57.20 7 5 232
1899 SI MM 09:00:00 NR -17.21 57.92 325 302 _____P____P___ -1 -16.52 58.89 99 -17.91 56.96 7 6 233
1899 SI MM 12:00:00 NR -17.38 57.69 302 279 _____P____P___ -1 -16.65 58.65 99 -18.12 56.73 7 6 231
1899 SI MM 15:00:00 NR -17.57 57.45 279 259 _____P____P___ -1 -16.79 58.40 99 -18.35 56.51 7 6 229
1899 SI MM 18:00:00 NR -17.77 57.22 259 240 _____P____O___ -1 -16.94 58.14 99 -18.60 56.30 7 6 227
1899 SI MM 21:00:00 NR -17.98 56.99 240 224 _____P____P___ -1 -17.10 57.88 99 -18.86 56.11 7 6 224
1899 SI MM 1899-03-05 00:00:00 NR -18.22 56.77 224 202 _____P____P___ -1 -17.29 57.61 99 -19.15 55.93 7 6 220
1899 SI MM 03:00:00 NR -18.47 56.56 202 194 _____P____P___ -1 -17.48 57.35 99 -19.46 55.76 7 7 217
1899 SI MM 06:00:00 NR -18.75 56.35 reunion 194 183 _____O____O___ -1 -17.70 57.10 99 9.90 -19.80 55.60 7 7 214
1899 SI MM 09:00:00 NR -19.04 56.14 191 177 _____P____P___ -1 -17.92 56.86 99 -20.17 55.43 7 7 212
1899 SI MM 12:00:00 NR -19.36 55.94 180 145 _____P____P___ -1 -18.15 56.62 99 -20.57 55.27 7 7 210
1899 SI MM 15:00:00 NR -19.69 55.75 145 111 _____P____P___ -1 -18.40 56.38 99 -20.98 55.12 7 8 207
1899 SI MM 18:00:00 NR -20.03 55.58 111 78 _____P____O___ -1 -18.67 56.16 99 -21.40 55.00 7 7 205
1899 SI MM 21:00:00 NR -20.37 55.43 67 33 _____P____P___ -1 -18.95 55.95 99 -21.78 54.90 7 7 202
1899 SI MM 1899-03-06 00:00:00 NR -20.71 55.29 33 10 _____P____P___ -1 -19.25 55.75 99 -22.17 54.83 7 7 199
1899 SI MM 03:00:00 NR -21.07 55.16 0 0 _____P____P___ -1 -19.57 55.56 99 -22.57 54.76 7 8 196
1899 SI MM 06:00:00 NR -21.45 55.05 reunion 23 30 _____O____O___ -1 -19.90 55.40 99 9.90 -23.00 54.70 7 8 195
1899 SI MM 09:00:00 NR -21.86 54.93 78 78 _____P____P___ -1 -20.23 55.25 99 -23.48 54.62 7 9 194
1899 SI MM 12:00:00 NR -22.29 54.82 123 123 _____P____P___ -1 -20.59 55.11 99 -23.99 54.54 7 9 192
1899 SI MM 15:00:00 NR -22.73 54.73 168 168 _____P____P___ -1 -20.95 55.00 99 -24.51 54.46 7 9 190
1899 SI MM 18:00:00 NR -23.17 54.65 224 224 _____P____O___ -1 -21.34 54.89 99 -25.00 54.40 7 9 189
1899 SI MM 21:00:00 NR -23.60 54.58 266 266 _____P____P___ -1 -21.73 54.80 99 -25.46 54.36 7 6 188
1899 SI MM 1899-03-07 00:00:00 NR -23.75 54.56 287 287 _____P____P___ -1 -22.15 54.73 99 -25.89 54.33 7 2 189
1899 SI MM 03:00:00 NR -23.81 54.54 291 280 _____P____P___ -1 -22.57 54.66 99 -26.30 54.31 7 0 0
1899 SI MM 06:00:00 NR -23.74 54.54 reunion 280 259 _____O____O___ -1 -23.00 54.60 99 9.90 -26.70 54.30 7 3 358
1899 SI MM 09:00:00 NR -23.48 54.53 259 259 _____P________ -1 -23.48 54.53 99 7 2 193
1899 SI MM 12:00:00 NR -23.97 54.48 311 311 _____P________ -1 -23.97 54.48 99 7 10 186
1899 SI MM 15:00:00 NR -24.48 54.43 367 367 _____P________ -1 -24.48 54.43 99 7 10 185
1899 SI MM 18:00:00 NR -24.98 54.39 420 420 _____P________ -1 -24.98 54.39 99 10 184
1899 SI MM 21:00:00 NR -25.46 54.36 474 474 _____P________ -1 -25.46 54.36 99 9 184
1899 SI MM 1899-03-08 00:00:00 NR -25.92 54.33 520 520 _____P________ -1 -25.92 54.33 99 9 183
1899 SI MM 03:00:00 NR -26.33 54.31 563 563 _____P________ -1 -26.33 54.31 99 8 183
1899 SI MM 06:00:00 NR -26.70 54.30 reunion 606 606 _____O________ -1 -26.70 54.30 99 9.90 7 0
1899 SI MM 09:00:00 NR -27.01 54.29 639 639 _____P________ -1 -27.01 54.29 99 6 0
1899 SI MM 12:00:00 NR -27.26 54.28 672 672 _____P________ -1 -27.26 54.28 99 5 181
1899 SI MM 15:00:00 NR -27.47 54.28 694 694 _____P________ -1 -27.47 54.28 99 4 184
1899 SI MM 18:00:00 NR -27.64 54.28 705 705 _____P________ -1 -27.64 54.28 99 3 0
1899 SI MM 21:00:00 NR -27.79 54.28 727 727 _____P________ -1 -27.79 54.28 99 3 174
1899 SI MM 1899-03-09 00:00:00 NR -27.90 54.29 738 738 _____P________ -1 -27.90 54.29 99 2 177
1899 SI MM 03:00:00 NR -28.01 54.29 749 749 _____P________ -1 -28.01 54.29 99 2 175
1899 SI MM 06:00:00 NR -28.10 54.30 reunion 760 _____O________ -1 -28.10 54.30 99 9.90 2 168